Time;durP1;ratioP1;P1;durP2;ratioP2;P2;SDS_P1;SDS_P2;PMS_P1;PMS_P2;Temp;Humidity;BMP_temperature;BMP_pressure;BME280_temperature;BME280_humidity;BME280_pressure;Samples;Min_cycle;Max_cycle;Signal;HPM_P1;HPM_P2
2022/09/19 00:00:43;;;;;;;7.32;3.25;;;10.00;99.90;;;;;;4977751;28;20046;-73
2022/09/19 00:03:10;;;;;;;6.90;3.00;;;10.00;99.90;;;;;;4965275;28;20054;-73
2022/09/19 00:05:40;;;;;;;7.07;3.28;;;10.00;99.90;;;;;;4961299;28;20061;-73
2022/09/19 00:08:07;;;;;;;6.90;3.35;;;10.00;99.90;;;;;;4965362;28;20054;-73
2022/09/19 00:10:40;;;;;;;8.52;3.40;;;10.00;99.90;;;;;;4937501;28;20069;-73
2022/09/19 00:13:07;;;;;;;13.07;3.50;;;10.00;99.90;;;;;;4956346;28;20054;-72
2022/09/19 00:15:36;;;;;;;6.18;2.88;;;9.90;99.90;;;;;;4976133;28;20070;-73
2022/09/19 00:18:02;;;;;;;8.25;2.97;;;10.00;99.90;;;;;;4971730;28;20053;-73
2022/09/19 00:20:29;;;;;;;8.85;2.90;;;10.00;99.90;;;;;;4964985;28;20050;-73
2022/09/19 00:25:39;;;;;;;10.48;2.78;;;10.00;99.90;;;;;;4951368;28;20051;-73
2022/09/19 00:28:04;;;;;;;6.70;2.80;;;10.00;99.90;;;;;;4954205;28;20059;-73
2022/09/19 00:30:30;;;;;;;9.25;4.30;;;10.00;99.90;;;;;;4955292;28;20560;-72
2022/09/19 00:32:57;;;;;;;8.68;2.80;;;10.00;99.90;;;;;;4958761;28;20058;-73
2022/09/19 00:35:24;;;;;;;5.93;2.53;;;10.00;99.90;;;;;;4952881;28;20051;-73
2022/09/19 00:37:49;;;;;;;6.65;3.00;;;10.00;99.90;;;;;;4981949;28;20379;-73
2022/09/19 00:40:15;;;;;;;6.15;2.50;;;10.00;99.90;;;;;;4955494;28;20074;-73
2022/09/19 00:42:41;;;;;;;7.05;2.50;;;10.00;99.90;;;;;;4965665;28;20093;-73
2022/09/19 00:45:13;;;;;;;3.33;2.22;;;10.00;99.90;;;;;;4968223;28;20819;-73
2022/09/19 00:47:40;;;;;;;5.22;2.70;;;10.00;99.90;;;;;;4972176;28;20042;-73
2022/09/19 00:50:10;;;;;;;4.32;2.70;;;10.10;99.90;;;;;;4966483;28;20050;-73
2022/09/19 00:52:46;;;;;;;5.53;2.90;;;10.00;99.90;;;;;;4954853;28;20047;-73
2022/09/19 00:55:12;;;;;;;6.60;2.92;;;10.00;99.90;;;;;;4939567;29;20039;-73
2022/09/19 00:58:08;;;;;;;7.32;3.22;;;10.10;99.90;;;;;;4943443;28;20053;-73
2022/09/19 01:00:34;;;;;;;4.85;3.03;;;10.00;99.90;;;;;;4939264;28;20058;-73
2022/09/19 01:03:02;;;;;;;7.13;2.92;;;10.00;99.90;;;;;;4965965;28;20379;-73
2022/09/19 01:05:33;;;;;;;5.28;3.55;;;10.00;99.90;;;;;;4974530;28;20106;-73
2022/09/19 01:08:03;;;;;;;5.72;3.10;;;10.10;99.90;;;;;;4937782;28;20046;-73
2022/09/19 01:10:44;;;;;;;5.13;3.03;;;10.00;99.90;;;;;;4970104;28;20631;-73
2022/09/19 01:13:39;;;;;;;6.53;2.97;;;10.10;99.90;;;;;;4969732;28;20109;-73
2022/09/19 01:16:11;;;;;;;7.35;3.30;;;10.10;99.90;;;;;;4951186;28;21541;-74
2022/09/19 01:19:08;;;;;;;5.93;3.05;;;10.10;99.90;;;;;;4962364;28;20511;-73
2022/09/19 01:22:12;;;;;;;6.47;2.90;;;10.10;99.90;;;;;;4950035;28;20133;-73
2022/09/19 01:24:58;;;;;;;7.82;2.83;;;10.10;99.90;;;;;;4945888;28;20071;-73
2022/09/19 01:27:30;;;;;;;5.80;2.65;;;10.10;99.90;;;;;;4959315;28;20067;-73
2022/09/19 01:30:14;;;;;;;6.88;2.60;;;10.10;99.90;;;;;;4953363;28;20095;-73
2022/09/19 01:32:54;;;;;;;4.88;2.60;;;10.10;99.90;;;;;;4974622;28;20123;-73
2022/09/19 01:35:28;;;;;;;4.53;2.30;;;10.00;99.90;;;;;;4952451;28;20048;-73
2022/09/19 01:38:00;;;;;;;4.70;2.30;;;10.00;99.90;;;;;;4972751;28;20046;-73
2022/09/19 01:40:26;;;;;;;3.90;2.03;;;10.00;99.90;;;;;;4916966;28;20059;-73
2022/09/19 01:42:57;;;;;;;4.80;1.80;;;10.00;99.90;;;;;;4959616;28;20061;-72
2022/09/19 01:45:31;;;;;;;4.78;1.58;;;10.00;99.90;;;;;;4967378;28;20062;-73
2022/09/19 01:48:12;;;;;;;5.22;1.85;;;10.00;99.90;;;;;;4960193;28;20134;-73
2022/09/19 01:50:51;;;;;;;7.00;2.17;;;10.10;99.90;;;;;;4989372;28;20038;-72
2022/09/19 01:53:46;;;;;;;4.35;1.58;;;10.00;99.90;;;;;;4963819;28;20045;-73
2022/09/19 01:56:27;;;;;;;7.30;1.48;;;10.10;99.90;;;;;;4958681;28;20662;-73
2022/09/19 01:59:04;;;;;;;11.75;1.63;;;10.10;99.90;;;;;;4960702;28;20054;-73
2022/09/19 02:01:44;;;;;;;4.32;1.20;;;10.00;99.90;;;;;;4972032;28;20043;-73
2022/09/19 02:04:41;;;;;;;2.80;1.05;;;10.00;99.90;;;;;;4953853;28;20050;-73
2022/09/19 02:07:16;;;;;;;3.35;1.10;;;10.00;99.90;;;;;;4948116;28;20118;-73
2022/09/19 02:10:08;;;;;;;4.07;1.13;;;10.00;99.90;;;;;;4955509;28;20150;-73
2022/09/19 02:12:36;;;;;;;2.95;1.00;;;9.90;99.90;;;;;;4974078;28;20129;-73
2022/09/19 02:15:03;;;;;;;2.90;0.98;;;9.90;99.90;;;;;;4960789;28;20043;-72
2022/09/19 02:17:33;;;;;;;5.60;1.20;;;9.90;99.90;;;;;;4959786;28;20054;-72
2022/09/19 02:20:08;;;;;;;5.47;1.52;;;9.90;99.90;;;;;;4966452;28;20057;-73
2022/09/19 02:22:37;;;;;;;3.70;1.20;;;9.90;99.90;;;;;;4969571;28;20050;-73
2022/09/19 02:25:12;;;;;;;5.80;1.10;;;9.90;99.90;;;;;;4971518;28;20047;-72
2022/09/19 02:27:46;;;;;;;2.95;1.00;;;10.00;99.90;;;;;;4967968;28;20157;-72
2022/09/19 02:30:12;;;;;;;6.55;1.30;;;9.90;99.90;;;;;;4942539;28;20682;-72
2022/09/19 02:32:38;;;;;;;5.38;1.40;;;10.00;99.90;;;;;;4947659;28;20074;-73
2022/09/19 02:35:05;;;;;;;4.38;1.13;;;9.90;99.90;;;;;;4953291;28;20051;-73
2022/09/19 02:37:47;;;;;;;7.07;1.80;;;10.00;99.90;;;;;;4955835;28;20053;-72
2022/09/19 02:40:32;;;;;;;5.90;1.73;;;10.00;99.90;;;;;;4963418;28;20397;-67
2022/09/19 02:43:20;;;;;;;4.38;1.30;;;10.00;99.90;;;;;;4938511;28;20042;-73
2022/09/19 02:45:51;;;;;;;3.58;1.50;;;10.00;99.90;;;;;;4973202;28;20051;-73
2022/09/19 02:48:46;;;;;;;2.00;1.02;;;10.00;99.90;;;;;;4965894;28;20522;-73
2022/09/19 02:51:18;;;;;;;5.55;1.27;;;10.00;99.90;;;;;;4953119;28;20043;-73
2022/09/19 02:53:47;;;;;;;5.00;1.45;;;10.00;99.90;;;;;;4960287;28;20050;-73
2022/09/19 02:56:14;;;;;;;2.95;1.17;;;10.00;99.90;;;;;;4974609;28;20081;-73
2022/09/19 02:58:52;;;;;;;3.80;1.40;;;10.00;99.90;;;;;;4972396;28;20050;-73
2022/09/19 03:01:23;;;;;;;3.55;1.40;;;10.00;99.90;;;;;;4956507;28;20426;-73
2022/09/19 03:06:37;;;;;;;;;;;10.00;99.90;;;;;;4951881;28;20051;-72
2022/09/19 03:09:04;;;;;;;6.20;1.50;;;10.00;99.90;;;;;;4966524;28;19918;-73
2022/09/19 03:11:30;;;;;;;7.28;1.65;;;9.90;99.90;;;;;;4953408;28;20118;-73
2022/09/19 03:13:59;;;;;;;5.47;1.38;;;9.90;99.90;;;;;;4949830;28;20058;-73
2022/09/19 03:16:35;;;;;;;5.03;2.00;;;9.90;99.90;;;;;;4965942;28;20055;-74
2022/09/19 03:19:05;;;;;;;4.65;1.70;;;10.00;99.90;;;;;;4947801;28;20047;-73
2022/09/19 03:21:33;;;;;;;6.07;1.80;;;9.90;99.90;;;;;;4977604;28;20038;-73
2022/09/19 03:23:58;;;;;;;6.60;2.15;;;9.90;99.90;;;;;;4967963;28;20043;-72
2022/09/19 03:26:35;;;;;;;9.00;2.90;;;9.90;99.90;;;;;;4974248;28;20051;-73
2022/09/19 03:29:03;;;;;;;5.43;2.35;;;9.90;99.90;;;;;;4962579;28;20149;-73
2022/09/19 03:31:28;;;;;;;7.60;2.67;;;9.90;99.90;;;;;;4973079;28;20047;-72
2022/09/19 03:33:57;;;;;;;9.48;2.85;;;9.90;99.90;;;;;;4972495;28;20053;-73
2022/09/19 03:36:23;;;;;;;;;;;9.90;99.90;;;;;;4957657;28;20043;-74
2022/09/19 03:39:01;;;;;;;6.85;3.20;;;9.90;99.90;;;;;;4963266;28;19910;-73
2022/09/19 03:41:27;;;;;;;;;;;9.80;99.90;;;;;;4964261;28;20053;-73
2022/09/19 03:43:53;;;;;;;9.07;3.90;;;9.90;99.90;;;;;;4958978;28;19914;-73
2022/09/19 03:46:22;;;;;;;7.25;3.65;;;9.90;99.90;;;;;;4936461;28;20050;-73
2022/09/19 03:48:48;;;;;;;8.80;4.07;;;9.90;99.90;;;;;;4966620;28;20421;-73
2022/09/19 03:51:14;;;;;;;11.43;4.07;;;9.90;99.90;;;;;;4964865;28;20046;-72
2022/09/19 03:53:42;;;;;;;7.13;3.60;;;9.80;99.90;;;;;;4956996;28;20060;-73
2022/09/19 03:56:10;;;;;;;9.57;4.78;;;9.90;99.90;;;;;;4955438;28;20047;-73
2022/09/19 03:58:38;;;;;;;10.98;5.30;;;9.90;99.90;;;;;;4964810;28;20055;-73
2022/09/19 04:01:06;;;;;;;9.32;4.70;;;9.90;99.90;;;;;;4964566;28;20129;-72
2022/09/19 04:03:33;;;;;;;10.13;4.88;;;9.90;99.90;;;;;;4956698;28;20047;-73
2022/09/19 04:06:00;;;;;;;14.15;6.15;;;9.90;99.90;;;;;;4938263;28;20050;-73
2022/09/19 04:08:26;;;;;;;8.65;4.97;;;9.90;99.90;;;;;;4951426;28;20054;-73
2022/09/19 04:10:52;;;;;;;12.98;5.82;;;9.90;99.90;;;;;;4969583;28;20043;-73
2022/09/19 04:13:20;;;;;;;9.07;6.22;;;9.90;99.90;;;;;;4967293;28;20128;-73
2022/09/19 04:15:46;;;;;;;11.00;6.60;;;9.90;99.90;;;;;;4961085;28;20460;-73
2022/09/19 04:18:12;;;;;;;12.35;6.75;;;9.80;99.90;;;;;;4951014;28;20047;-73
2022/09/19 04:20:39;;;;;;;13.70;6.75;;;9.80;99.90;;;;;;4965982;28;20065;-73
2022/09/19 04:23:05;;;;;;;13.05;6.50;;;9.80;99.90;;;;;;4963134;28;20104;-73
2022/09/19 04:25:34;;;;;;;11.07;5.63;;;9.80;99.90;;;;;;4954849;28;20063;-73
2022/09/19 04:28:03;;;;;;;10.82;7.28;;;9.80;99.90;;;;;;4957281;28;20511;-73
2022/09/19 04:30:31;;;;;;;11.77;6.65;;;9.80;99.90;;;;;;4925084;28;20047;-72
2022/09/19 04:32:58;;;;;;;9.90;6.55;;;9.80;99.90;;;;;;4937865;28;20051;-73
2022/09/19 04:35:25;;;;;;;12.75;6.95;;;9.80;99.90;;;;;;4963447;28;20761;-73
2022/09/19 04:37:51;;;;;;;11.48;6.68;;;9.80;99.90;;;;;;4974837;28;20051;-73
2022/09/19 04:40:16;;;;;;;13.07;6.70;;;9.70;99.90;;;;;;4966740;28;20058;-73
2022/09/19 04:42:44;;;;;;;12.30;6.60;;;9.80;99.90;;;;;;4962094;28;20559;-73
2022/09/19 04:45:10;;;;;;;9.37;5.53;;;9.80;99.90;;;;;;4976626;28;20082;-73
2022/09/19 04:47:37;;;;;;;16.92;6.25;;;9.80;99.90;;;;;;4968226;28;20298;-73
2022/09/19 04:50:06;;;;;;;8.88;5.45;;;9.80;99.90;;;;;;4956017;28;20051;-73
2022/09/19 04:52:32;;;;;;;12.88;5.43;;;9.80;99.90;;;;;;4977032;28;20042;-72
2022/09/19 04:54:58;;;;;;;9.60;6.22;;;9.80;99.90;;;;;;4982265;28;20043;-73
2022/09/19 04:57:26;;;;;;;10.57;5.10;;;9.80;99.90;;;;;;4971138;28;20066;-73
2022/09/19 04:59:54;;;;;;;;;;;9.80;99.90;;;;;;4961253;28;20047;-73
2022/09/19 05:02:21;;;;;;;8.90;4.25;;;9.70;99.90;;;;;;4960306;28;19970;-72
2022/09/19 05:04:47;;;;;;;10.73;4.68;;;9.70;99.90;;;;;;4968358;28;20050;-73
2022/09/19 05:07:13;;;;;;;9.93;4.63;;;9.70;99.90;;;;;;4928211;29;20381;-73
2022/09/19 05:09:42;;;;;;;10.32;4.47;;;9.70;99.90;;;;;;4963432;28;20130;-74
2022/09/19 05:12:11;;;;;;;13.32;4.40;;;9.60;99.90;;;;;;4978388;28;20141;-73
2022/09/19 05:14:36;;;;;;;12.27;4.35;;;9.60;99.90;;;;;;4959213;28;20046;-73
2022/09/19 05:17:04;;;;;;;8.88;4.18;;;9.50;99.90;;;;;;4967055;28;20429;-73
2022/09/19 05:19:32;;;;;;;11.65;3.95;;;9.50;99.90;;;;;;4950354;28;20347;-73
2022/09/19 05:21:59;;;;;;;9.93;3.97;;;9.50;99.90;;;;;;4966849;28;20095;-73
2022/09/19 05:24:24;;;;;;;10.48;3.80;;;9.50;99.90;;;;;;4977241;28;20053;-73
2022/09/19 05:26:50;;;;;;;9.07;3.25;;;9.50;99.90;;;;;;4947453;28;20054;-73
2022/09/19 05:29:17;;;;;;;7.53;3.35;;;9.50;99.90;;;;;;4966138;28;20062;-73
2022/09/19 05:31:45;;;;;;;7.38;3.50;;;9.50;99.90;;;;;;4960852;28;20058;-73
2022/09/19 05:34:13;;;;;;;;;;;9.50;99.90;;;;;;4974177;28;20134;-73
2022/09/19 05:36:42;;;;;;;6.93;3.38;;;9.50;99.90;;;;;;4941653;28;19918;-73
2022/09/19 05:39:09;;;;;;;9.02;3.22;;;9.50;99.90;;;;;;4969250;28;20046;-73
2022/09/19 05:41:37;;;;;;;11.65;3.40;;;9.50;99.90;;;;;;4968083;28;20047;-73
2022/09/19 05:44:03;;;;;;;10.43;3.33;;;9.50;99.90;;;;;;4959752;28;20054;-73
2022/09/19 05:46:29;;;;;;;9.60;3.40;;;9.50;99.90;;;;;;4975713;28;20066;-73
2022/09/19 05:48:55;;;;;;;6.10;3.55;;;9.50;99.90;;;;;;4949389;29;20543;-73
2022/09/19 05:51:21;;;;;;;11.63;3.35;;;9.50;99.90;;;;;;4980408;28;20210;-73
2022/09/19 05:53:53;;;;;;;8.95;3.60;;;9.50;99.90;;;;;;4971616;28;20515;-73
2022/09/19 05:56:21;;;;;;;10.30;3.67;;;9.50;99.90;;;;;;4975527;28;20512;-73
2022/09/19 05:58:47;;;;;;;7.43;2.50;;;9.60;99.90;;;;;;4957682;28;20138;-73
2022/09/19 06:01:14;;;;;;;9.45;2.83;;;9.60;99.90;;;;;;4970951;28;20130;-73
2022/09/19 06:03:40;;;;;;;11.43;2.67;;;9.60;99.90;;;;;;4966225;28;20050;-73
2022/09/19 06:06:13;;;;;;;8.70;3.05;;;9.70;99.90;;;;;;4968157;28;20059;-73
2022/09/19 06:08:40;;;;;;;9.02;2.65;;;9.60;99.90;;;;;;4941355;28;20054;-73
2022/09/19 06:11:06;;;;;;;9.38;3.33;;;9.70;99.90;;;;;;4975908;28;20059;-72
2022/09/19 06:16:17;;;;;;;6.93;2.92;;;9.70;99.90;;;;;;4977255;28;20054;-73
2022/09/19 06:18:42;;;;;;;8.25;3.05;;;9.80;99.90;;;;;;4969225;28;20750;-73
2022/09/19 06:21:12;;;;;;;13.25;2.83;;;9.80;99.90;;;;;;4938785;28;20149;-73
2022/09/19 06:23:38;;;;;;;7.63;2.80;;;9.90;99.90;;;;;;4977480;28;20122;-73
2022/09/19 06:26:04;;;;;;;10.38;2.67;;;9.90;99.90;;;;;;4981989;28;20165;-72
2022/09/19 06:28:30;;;;;;;13.35;3.35;;;10.00;99.90;;;;;;4937266;28;20141;-71
2022/09/19 06:31:03;;;;;;;13.27;2.80;;;10.00;99.90;;;;;;4974951;28;20087;-72
2022/09/19 06:33:30;;;;;;;9.80;3.95;;;10.10;99.90;;;;;;4965923;28;20133;-72
2022/09/19 06:35:57;;;;;;;13.32;3.13;;;10.10;99.90;;;;;;4982992;28;20042;-73
2022/09/19 06:38:23;;;;;;;9.10;2.80;;;10.10;99.90;;;;;;4972303;28;20046;-72
2022/09/19 06:40:49;;;;;;;14.45;3.53;;;10.10;99.90;;;;;;4959110;28;20112;-72
2022/09/19 06:43:15;;;;;;;12.32;3.03;;;10.10;99.90;;;;;;4976095;28;20050;-73
2022/09/19 06:45:41;;;;;;;10.52;2.78;;;10.10;99.90;;;;;;4980408;28;20791;-73
2022/09/19 06:48:08;;;;;;;10.93;2.53;;;10.10;99.90;;;;;;4967190;28;20058;-72
2022/09/19 06:50:34;;;;;;;12.85;2.70;;;10.20;99.90;;;;;;4983749;28;20104;-73
2022/09/19 06:53:00;;;;;;;7.45;2.58;;;10.20;99.90;;;;;;4961050;28;20054;-72
2022/09/19 06:55:27;;;;;;;12.43;2.63;;;10.20;99.90;;;;;;4970578;28;20133;-71
2022/09/19 06:58:01;;;;;;;14.95;2.40;;;10.20;99.90;;;;;;4942737;28;20105;-72
2022/09/19 07:00:28;;;;;;;9.15;2.65;;;10.30;99.90;;;;;;4962573;28;20074;-72
2022/09/19 07:03:09;;;;;;;6.72;2.15;;;10.30;99.90;;;;;;4973389;28;20052;-72
2022/09/19 07:05:36;;;;;;;12.90;2.33;;;10.40;99.90;;;;;;4964187;28;20162;-73
2022/09/19 07:08:03;;;;;;;9.43;2.65;;;10.50;99.90;;;;;;4974593;28;20377;-71
2022/09/19 07:10:29;;;;;;;8.32;2.55;;;10.50;99.90;;;;;;4965587;28;20459;-72
2022/09/19 07:13:01;;;;;;;14.25;3.15;;;10.60;99.90;;;;;;4981004;28;20062;-72
2022/09/19 07:15:27;;;;;;;11.82;3.05;;;10.60;99.90;;;;;;4952000;28;20189;-73
2022/09/19 07:17:54;;;;;;;10.13;2.95;;;10.70;99.90;;;;;;4948199;28;20058;-72
2022/09/19 07:20:20;;;;;;;14.23;3.80;;;10.80;99.90;;;;;;4967014;28;20502;-71
2022/09/19 07:22:47;;;;;;;15.48;3.40;;;10.80;99.90;;;;;;4925285;28;20057;-71
2022/09/19 07:25:13;;;;;;;13.18;3.42;;;10.90;99.90;;;;;;4964446;28;20058;-72
2022/09/19 07:27:42;;;;;;;10.63;3.70;;;11.00;99.90;;;;;;4946055;28;20547;-74
2022/09/19 07:30:08;;;;;;;;;;;11.10;99.90;;;;;;4977375;28;20047;-73
2022/09/19 07:32:33;;;;;;;13.75;3.88;;;11.10;99.90;;;;;;4948983;28;19943;-73
2022/09/19 07:34:59;;;;;;;20.48;5.13;;;11.20;99.90;;;;;;4962202;28;20113;-73
2022/09/19 07:37:25;;;;;;;15.07;5.10;;;11.20;99.90;;;;;;4972653;28;20761;-73
2022/09/19 07:39:52;;;;;;;16.27;5.00;;;11.30;99.90;;;;;;4952694;28;20062;-73
2022/09/19 07:42:20;;;;;;;13.85;4.57;;;11.30;99.90;;;;;;4972002;28;20050;-73
2022/09/19 07:44:45;;;;;;;20.00;5.60;;;11.40;99.90;;;;;;4972896;28;20157;-74
2022/09/19 07:47:26;;;;;;;25.60;5.88;;;11.50;99.90;;;;;;4965690;28;20450;-73
2022/09/19 07:49:54;;;;;;;17.17;4.63;;;11.50;99.90;;;;;;4953209;28;20042;-73
2022/09/19 07:52:20;;;;;;;23.77;6.18;;;11.40;99.90;;;;;;4970845;28;20043;-73
2022/09/19 07:54:46;;;;;;;19.20;5.85;;;11.50;99.90;;;;;;4965566;28;20443;-73
2022/09/19 07:57:11;;;;;;;16.77;5.53;;;11.50;99.90;;;;;;4957807;28;20050;-73
2022/09/19 07:59:38;;;;;;;17.65;6.13;;;11.60;99.90;;;;;;4972510;28;20077;-73
2022/09/19 08:02:07;;;;;;;18.48;6.43;;;11.60;99.90;;;;;;4967963;28;20101;-73
2022/09/19 08:04:33;;;;;;;17.65;6.85;;;11.70;99.90;;;;;;4971859;28;20058;-73
2022/09/19 08:06:58;;;;;;;23.33;7.20;;;11.70;99.90;;;;;;4986041;28;20050;-73
2022/09/19 08:09:24;;;;;;;16.98;7.13;;;11.70;99.90;;;;;;4975471;28;20353;-73
2022/09/19 08:11:50;;;;;;;21.25;7.82;;;11.80;99.90;;;;;;4969953;28;20058;-74
2022/09/19 08:14:16;;;;;;;18.83;7.03;;;11.90;99.90;;;;;;4943760;28;20129;-73
2022/09/19 08:16:41;;;;;;;17.05;8.00;;;11.90;99.90;;;;;;4967410;28;20161;-73
2022/09/19 08:19:09;;;;;;;17.58;7.32;;;12.00;99.90;;;;;;4970071;28;20046;-74
2022/09/19 08:21:35;;;;;;;19.50;6.53;;;12.00;99.90;;;;;;4953850;28;20056;-73
2022/09/19 08:24:01;;;;;;;16.73;5.85;;;12.10;99.90;;;;;;4939332;28;20142;-73
2022/09/19 08:26:26;;;;;;;19.23;5.95;;;12.10;99.90;;;;;;4971935;28;20096;-73
2022/09/19 08:28:52;;;;;;;17.95;6.28;;;12.20;99.90;;;;;;4938964;28;20042;-73
2022/09/19 08:31:20;;;;;;;21.67;5.85;;;12.20;99.90;;;;;;4973970;28;20093;-73
2022/09/19 08:33:48;;;;;;;20.65;5.35;;;12.20;99.90;;;;;;4969182;28;20046;-73
2022/09/19 08:36:14;;;;;;;19.55;5.55;;;12.30;99.90;;;;;;4966139;28;20043;-73
2022/09/19 08:38:40;;;;;;;20.58;5.57;;;12.40;99.90;;;;;;4971013;28;20074;-74
2022/09/19 08:41:24;;;;;;;24.95;6.72;;;12.40;99.90;;;;;;4962207;28;20072;-73
2022/09/19 08:44:05;;;;;;;20.50;5.15;;;12.40;99.90;;;;;;4977083;28;20049;-73
2022/09/19 08:46:35;;;;;;;16.58;4.90;;;12.50;99.90;;;;;;4969770;28;20054;-73
2022/09/19 08:49:05;;;;;;;17.40;5.32;;;12.50;99.90;;;;;;4967064;28;20039;-73
2022/09/19 08:51:48;;;;;;;15.93;4.90;;;12.60;99.90;;;;;;4948050;28;20439;-73
2022/09/19 08:54:21;;;;;;;13.45;4.10;;;12.60;99.90;;;;;;4956933;28;20054;-73
2022/09/19 08:56:47;;;;;;;18.40;4.68;;;12.70;99.90;;;;;;4983062;28;20391;-74
2022/09/19 08:59:20;;;;;;;17.05;4.53;;;12.80;99.90;;;;;;4947236;28;20185;-74
2022/09/19 09:01:46;;;;;;;14.88;3.83;;;12.90;99.90;;;;;;4972470;28;20054;-73
2022/09/19 09:04:30;;;;;;;15.80;4.38;;;12.90;99.90;;;;;;4970667;28;20055;-73
2022/09/19 09:07:08;;;;;;;17.77;3.88;;;13.00;99.90;;;;;;4966925;28;20082;-74
2022/09/19 09:09:50;;;;;;;18.55;3.72;;;13.00;99.90;;;;;;4975995;28;20455;-73
2022/09/19 09:13:07;;;;;;;14.95;3.10;;;13.10;99.90;;;;;;4971352;28;20255;-74
2022/09/19 09:15:58;;;;;;;10.25;2.70;;;13.30;99.90;;;;;;4932895;28;20047;-73
2022/09/19 09:18:38;;;;;;;13.45;3.17;;;13.40;99.90;;;;;;4964899;28;20094;-74
2022/09/19 09:21:14;;;;;;;14.38;2.97;;;13.50;99.90;;;;;;4972197;28;20074;-73
2022/09/19 09:23:42;;;;;;;16.17;3.40;;;13.70;99.90;;;;;;4975031;28;20050;-73
2022/09/19 09:26:17;;;;;;;17.00;3.17;;;13.80;99.60;;;;;;4962669;28;20131;-75
2022/09/19 09:29:28;;;;;;;16.42;3.47;;;13.80;99.50;;;;;;4960526;28;20129;-73
2022/09/19 09:32:15;;;;;;;17.45;2.92;;;13.80;99.20;;;;;;4901781;29;20040;-75
2022/09/19 09:34:53;;;;;;;11.27;2.70;;;13.70;99.20;;;;;;4900950;29;20071;-75
2022/09/19 09:37:21;;;;;;;;;;;13.70;99.50;;;;;;4946850;28;20058;-73
2022/09/19 09:40:00;;;;;;;13.82;3.05;;;13.70;99.50;;;;;;4973549;28;19961;-76
2022/09/19 09:42:59;;;;;;;23.08;2.45;;;13.70;99.20;;;;;;4954949;28;20050;-74
2022/09/19 09:45:41;;;;;;;14.20;2.67;;;13.60;98.90;;;;;;4956147;28;20762;-74
2022/09/19 09:48:10;;;;;;;15.27;3.13;;;13.60;98.80;;;;;;4979509;28;20054;-76
2022/09/19 09:50:55;;;;;;;14.02;2.80;;;13.60;99.50;;;;;;4975293;28;20054;-73
2022/09/19 09:53:49;;;;;;;17.75;2.92;;;13.60;99.60;;;;;;4954829;28;20072;-73
2022/09/19 09:56:45;;;;;;;12.88;2.80;;;13.70;99.90;;;;;;4974262;28;20046;-73
2022/09/19 10:05:36;;;;;;;18.38;2.85;;;13.80;99.60;;;;;;4984505;28;20046;-76
2022/09/19 10:08:20;;;;;;;7.80;2.15;;;14.00;99.40;;;;;;4952197;28;20447;-75
2022/09/19 10:10:46;;;;;;;8.35;2.28;;;14.20;98.20;;;;;;4961454;28;20043;-75
2022/09/19 10:13:26;;;;;;;17.92;2.58;;;14.40;97.70;;;;;;4977250;28;20058;-73
2022/09/19 10:15:54;;;;;;;12.02;2.13;;;14.70;96.50;;;;;;4971455;28;20118;-74
2022/09/19 10:18:22;;;;;;;54.10;2.88;;;14.70;96.90;;;;;;4970765;28;20797;-70
2022/09/19 10:20:51;;;;;;;12.93;2.38;;;14.80;95.80;;;;;;4971520;28;20070;-74
2022/09/19 10:23:30;;;;;;;12.90;2.50;;;14.80;95.70;;;;;;4971627;28;20050;-74
2022/09/19 10:26:07;;;;;;;10.85;2.30;;;14.70;95.10;;;;;;4982591;28;20062;-74
2022/09/19 10:28:37;;;;;;;9.93;1.83;;;14.70;95.10;;;;;;4957520;28;20065;-76
2022/09/19 10:31:04;;;;;;;12.52;1.77;;;14.70;94.80;;;;;;4968088;28;20042;-74
2022/09/19 10:33:50;;;;;;;14.95;2.95;;;14.80;94.70;;;;;;4971163;28;20046;-74
2022/09/19 10:36:25;;;;;;;13.65;2.80;;;14.90;94.80;;;;;;4969965;28;20046;-73
2022/09/19 10:38:54;;;;;;;10.73;1.70;;;15.10;93.90;;;;;;4966809;28;20133;-73
2022/09/19 10:41:21;;;;;;;8.65;1.70;;;15.30;93.20;;;;;;4972462;28;20129;-74
2022/09/19 10:43:54;;;;;;;15.15;2.35;;;15.30;92.10;;;;;;4942016;28;20865;-74
2022/09/19 10:46:35;;;;;;;9.25;2.03;;;15.20;93.30;;;;;;4968311;28;20057;-74
2022/09/19 10:49:05;;;;;;;8.85;1.85;;;15.20;92.90;;;;;;4972573;28;20046;-74
2022/09/19 10:51:36;;;;;;;11.20;2.55;;;15.10;94.40;;;;;;4930742;28;20146;-73
2022/09/19 10:54:11;;;;;;;12.65;3.15;;;15.10;94.70;;;;;;4978048;28;20511;-73
2022/09/19 10:56:39;;;;;;;13.27;1.90;;;14.90;94.30;;;;;;4975438;28;20629;-74
2022/09/19 10:59:17;;;;;;;10.65;2.53;;;15.10;94.30;;;;;;4956234;28;20046;-75
2022/09/19 11:01:42;;;;;;;9.57;1.98;;;15.10;93.70;;;;;;4965277;28;20214;-73
2022/09/19 11:04:11;;;;;;;8.73;1.55;;;15.20;93.70;;;;;;4959949;28;20070;-75
2022/09/19 11:06:54;;;;;;;6.55;1.77;;;15.40;92.80;;;;;;4981376;28;20423;-75
2022/09/19 11:09:33;;;;;;;9.88;1.77;;;15.40;92.30;;;;;;4956346;28;20057;-76
2022/09/19 11:12:16;;;;;;;8.70;1.70;;;15.50;91.50;;;;;;4967773;28;20093;-75
2022/09/19 11:14:44;;;;;;;7.38;1.58;;;15.80;91.00;;;;;;4971573;28;20057;-75
2022/09/19 11:18:04;;;;;;;8.68;1.90;;;16.00;91.00;;;;;;4967836;28;20476;-76
2022/09/19 11:20:40;;;;;;;7.50;1.30;;;16.10;89.00;;;;;;4930271;29;20051;-75
2022/09/19 11:23:31;;;;;;;10.40;1.83;;;16.40;89.30;;;;;;4939912;28;20061;-76
2022/09/19 11:26:29;;;;;;;7.65;1.55;;;16.50;87.30;;;;;;4976712;28;20050;-75
2022/09/19 11:29:12;;;;;;;12.02;1.63;;;16.50;86.60;;;;;;4960158;28;20124;-77
2022/09/19 11:31:50;;;;;;;8.38;1.55;;;16.30;86.00;;;;;;4966536;28;20051;-75
2022/09/19 11:34:40;;;;;;;7.50;1.58;;;16.30;84.50;;;;;;4984485;28;20042;-78
2022/09/19 11:37:14;;;;;;;6.50;1.40;;;16.30;85.40;;;;;;4957383;28;20042;-75
2022/09/19 11:39:49;;;;;;;7.53;1.70;;;16.30;86.40;;;;;;4959464;28;20055;-76
2022/09/19 11:42:20;;;;;;;8.07;2.22;;;16.30;83.30;;;;;;4968995;28;20050;-75
2022/09/19 11:45:08;;;;;;;5.85;1.48;;;16.40;83.90;;;;;;4949562;28;20115;-75
2022/09/19 11:47:46;;;;;;;11.73;1.95;;;16.50;84.80;;;;;;4962348;28;20062;-76
2022/09/19 11:50:39;;;;;;;6.93;1.55;;;16.40;84.90;;;;;;4979026;28;20048;-76
2022/09/19 11:53:28;;;;;;;9.02;1.70;;;16.00;84.00;;;;;;4979102;28;20053;-75
2022/09/19 11:56:00;;;;;;;13.27;3.55;;;15.90;85.60;;;;;;4982964;28;20065;-75
2022/09/19 11:58:38;;;;;;;10.25;1.70;;;15.90;87.50;;;;;;4981402;28;20082;-75
2022/09/19 12:01:15;;;;;;;9.65;1.98;;;16.00;88.50;;;;;;4962620;28;20473;-76
2022/09/19 12:04:19;;;;;;;8.02;1.77;;;16.00;88.70;;;;;;4978814;28;20374;-75
2022/09/19 12:07:25;;;;;;;11.77;1.73;;;16.10;87.40;;;;;;4971833;28;20126;-75
2022/09/19 12:10:15;;;;;;;6.95;1.67;;;15.90;88.30;;;;;;4971158;28;20058;-75
2022/09/19 12:12:43;;;;;;;8.85;1.50;;;15.60;88.40;;;;;;4979017;28;20053;-75
2022/09/19 12:15:17;;;;;;;11.63;1.77;;;15.60;89.00;;;;;;4962836;28;20096;-76
2022/09/19 12:17:58;;;;;;;7.85;1.50;;;15.60;90.00;;;;;;4960901;28;20042;-75
2022/09/19 12:20:45;;;;;;;9.27;1.60;;;15.40;87.80;;;;;;4966209;28;20046;-75
2022/09/19 12:26:53;;;;;;;10.93;1.60;;;15.40;90.00;;;;;;4992401;28;20153;-75
2022/09/19 12:29:48;;;;;;;9.02;1.45;;;15.50;90.20;;;;;;4962131;28;20149;-75
2022/09/19 12:32:19;;;;;;;7.82;1.50;;;15.50;90.70;;;;;;4969714;28;20054;-76
2022/09/19 12:34:51;;;;;;;8.35;1.40;;;15.50;90.90;;;;;;4960037;28;20053;-75
2022/09/19 12:37:35;;;;;;;10.43;2.05;;;15.40;88.80;;;;;;4977078;28;20055;-75
2022/09/19 12:40:28;;;;;;;4.80;1.50;;;15.20;86.40;;;;;;4957441;28;20047;-75
2022/09/19 12:43:21;;;;;;;6.55;1.60;;;15.10;89.40;;;;;;4971084;28;20465;-75
2022/09/19 12:45:57;;;;;;;13.02;1.98;;;14.90;90.00;;;;;;4895022;29;20240;-76
2022/09/19 12:48:47;;;;;;;10.02;1.70;;;14.80;90.60;;;;;;4944706;28;20136;-75
2022/09/19 12:51:14;;;;;;;5.32;1.30;;;14.80;91.20;;;;;;4947345;28;20049;-75
2022/09/19 12:53:47;;;;;;;3.20;0.77;;;14.50;90.40;;;;;;4949900;28;20042;-75
2022/09/19 12:56:26;;;;;;;3.70;0.70;;;14.10;89.40;;;;;;4961351;28;20071;-75
2022/09/19 12:59:35;;;;;;;1.88;0.63;;;13.70;91.20;;;;;;4962395;28;20132;-75
2022/09/19 13:02:43;;;;;;;3.75;0.50;;;13.30;93.10;;;;;;4898909;29;20071;-75
2022/09/19 13:05:21;;;;;;;;;;;13.00;93.30;;;;;;4954654;28;20065;-75
2022/09/19 13:08:21;;;;;;;4.38;0.52;;;12.60;94.40;;;;;;4979018;28;19921;-75
2022/09/19 13:11:09;;;;;;;4.13;0.60;;;12.30;95.50;;;;;;4950758;28;20141;-74
2022/09/19 13:14:14;;;;;;;6.90;1.40;;;12.10;97.70;;;;;;4962736;28;20061;-74
2022/09/19 13:23:29;;;;;;;5.05;0.85;;;11.80;99.00;;;;;;4977685;28;20531;-73
2022/09/19 13:24:44;;;;;;;3.70;1.20;;;11.80;99.00;;;;;;4976507;28;20043;-73
2022/09/19 13:27:10;;;;;;;3.60;1.10;;;11.70;99.70;;;;;;4958971;28;20065;-73
2022/09/19 13:29:43;;;;;;;4.18;1.05;;;11.50;99.40;;;;;;4980458;28;20046;-73
2022/09/19 13:32:34;;;;;;;2.42;1.15;;;11.60;99.50;;;;;;4977393;28;20115;-73
2022/09/19 13:35:11;;;;;;;6.13;2.60;;;11.60;99.30;;;;;;4974979;28;20047;-73
2022/09/19 13:37:43;;;;;;;3.67;1.30;;;11.70;99.00;;;;;;4977340;28;20050;-73
2022/09/19 13:40:14;;;;;;;3.97;1.45;;;11.50;99.40;;;;;;4983704;28;20400;-73
2022/09/19 13:42:43;;;;;;;8.82;3.95;;;11.50;99.90;;;;;;4973296;28;20147;-73